createdAt,value
2018-04-10T00:00:20.328Z,66.60
2018-04-10T00:02:49.594Z,66.60
2018-04-10T00:05:18.060Z,66.40
2018-04-10T00:07:45.957Z,66.10
2018-04-10T00:10:13.789Z,66.70
2018-04-10T00:12:42.373Z,66.70
2018-04-10T00:15:10.680Z,66.70
2018-04-10T00:17:38.502Z,67.00
2018-04-10T00:20:06.268Z,67.70
2018-04-10T00:22:34.231Z,68.00
2018-04-10T00:25:02.843Z,67.20
2018-04-10T00:27:30.656Z,67.20
2018-04-10T00:29:58.363Z,67.40
2018-04-10T00:32:27.124Z,68.50
2018-04-10T00:34:55.112Z,68.50
2018-04-10T00:37:22.934Z,68.50
2018-04-10T00:39:50.606Z,68.60
2018-04-10T00:42:18.388Z,68.30
2018-04-10T00:44:46.214Z,68.50
2018-04-10T00:47:14.011Z,70.00
2018-04-10T00:49:41.784Z,69.30
2018-04-10T00:52:10.035Z,68.60
2018-04-10T00:54:38.363Z,68.80
2018-04-10T00:57:07.594Z,69.30
2018-04-10T00:59:35.262Z,69.40
2018-04-10T01:02:03.002Z,69.30
2018-04-10T01:04:31.518Z,69.60
2018-04-10T01:06:59.933Z,69.60
2018-04-10T01:09:28.481Z,68.70
2018-04-10T01:11:56.295Z,68.40
2018-04-10T01:14:25.048Z,68.10
2018-04-10T01:16:52.910Z,68.10
2018-04-10T01:19:20.647Z,68.30
2018-04-10T01:21:48.560Z,69.20
2018-04-10T01:24:16.228Z,69.10
2018-04-10T01:26:44.057Z,69.20
2018-04-10T01:29:12.040Z,70.20
2018-04-10T01:31:39.727Z,71.30
2018-04-10T01:34:07.424Z,70.80
2018-04-10T01:36:36.147Z,71.30
2018-04-10T01:39:04.276Z,71.80
2018-04-10T01:41:32.213Z,71.80
2018-04-10T01:44:00.031Z,71.80
2018-04-10T01:46:34.050Z,72.40
2018-04-10T01:49:01.903Z,72.10
2018-04-10T01:51:29.619Z,72.40
2018-04-10T01:53:57.319Z,72.30
2018-04-10T01:56:25.121Z,72.10
2018-04-10T01:58:52.905Z,72.40
2018-04-10T02:01:21.153Z,72.70
2018-04-10T02:03:49.111Z,72.40
2018-04-10T02:06:18.346Z,72.70
2018-04-10T02:08:46.157Z,72.70
2018-04-10T02:11:13.874Z,73.00
2018-04-10T02:19:04.926Z,72.80
2018-04-10T02:21:33.488Z,72.40
2018-04-10T02:24:01.247Z,72.50
2018-04-10T02:26:29.108Z,72.10
2018-04-10T02:28:56.854Z,72.00
2018-04-10T02:31:24.649Z,72.30
2018-04-10T02:33:53.338Z,72.10
2018-04-10T02:36:22.098Z,71.20
2018-04-10T02:38:49.897Z,71.20
2018-04-10T02:41:19.468Z,71.40
2018-04-10T02:43:48.797Z,72.70
2018-04-10T02:46:17.052Z,72.70
2018-04-10T02:48:44.774Z,72.90
2018-04-10T02:51:12.514Z,72.80
2018-04-10T02:53:40.203Z,73.40
2018-04-10T02:56:08.053Z,74.10
2018-04-10T02:58:35.859Z,74.40
2018-04-10T03:01:03.596Z,74.30
2018-04-10T03:03:32.290Z,74.00
2018-04-10T03:06:00.217Z,73.40
2018-04-10T03:08:27.938Z,73.00
2018-04-10T03:10:56.443Z,73.60
2018-04-10T03:13:25.064Z,72.40
2018-04-10T03:15:53.403Z,72.40
2018-04-10T03:18:21.188Z,72.70
2018-04-10T03:20:49.859Z,71.70
2018-04-10T03:23:17.612Z,71.70
2018-04-10T03:25:45.279Z,71.90
2018-04-10T03:28:13.067Z,71.40
2018-04-10T03:30:40.778Z,71.90
2018-04-10T03:33:08.584Z,71.90
2018-04-10T03:35:36.361Z,71.90
2018-04-10T03:38:05.095Z,71.90
2018-04-10T03:40:33.487Z,72.00
2018-04-10T03:43:01.285Z,71.60
2018-04-10T03:45:29.832Z,72.00
2018-04-10T03:47:57.733Z,72.00
2018-04-10T03:50:26.236Z,73.00
2018-04-10T03:52:54.255Z,72.60
2018-04-10T03:55:22.065Z,72.30
2018-04-10T03:57:50.989Z,72.20
2018-04-10T04:00:18.885Z,73.20
2018-04-10T04:02:47.203Z,73.90
2018-04-10T04:05:16.044Z,72.90
2018-04-10T04:07:43.905Z,73.00
2018-04-10T04:10:11.749Z,72.60
2018-04-10T04:12:39.580Z,72.50
2018-04-10T04:15:08.065Z,72.70
2018-04-10T04:17:35.745Z,73.10
2018-04-10T04:20:15.743Z,73.00
2018-04-10T04:22:43.651Z,72.60
2018-04-10T04:25:11.371Z,72.20
2018-04-10T04:27:39.534Z,72.80
2018-04-10T04:30:07.386Z,72.70
2018-04-10T04:32:35.074Z,73.00
2018-04-10T04:35:02.957Z,72.70
2018-04-10T04:37:31.815Z,73.80
2018-04-10T04:39:59.843Z,73.80
2018-04-10T04:42:31.344Z,73.60
2018-04-10T04:44:59.281Z,73.40
2018-04-10T04:47:31.034Z,73.50
2018-04-10T04:49:59.245Z,73.50
2018-04-10T04:58:11.536Z,73.30
2018-04-10T05:00:39.645Z,74.20
2018-04-10T05:03:08.761Z,75.10
2018-04-10T05:05:36.606Z,75.10
2018-04-10T05:08:04.258Z,74.90
2018-04-10T05:10:31.996Z,75.30
2018-04-10T05:12:59.648Z,75.30
2018-04-10T05:15:27.530Z,75.20
2018-04-10T05:17:55.735Z,75.50
2018-04-10T05:20:23.762Z,75.50
2018-04-10T05:22:51.717Z,76.70
2018-04-10T05:25:19.593Z,77.00
2018-04-10T05:27:47.478Z,76.40
2018-04-10T05:30:15.409Z,75.60
2018-04-10T05:32:43.871Z,75.30
2018-04-10T05:35:11.874Z,75.30
2018-04-10T05:37:39.776Z,75.40
2018-04-10T05:40:11.672Z,75.70
2018-04-10T05:42:39.592Z,75.60
2018-04-10T05:45:07.552Z,75.20
2018-04-10T05:47:36.618Z,75.00
2018-04-10T05:50:05.574Z,74.80
2018-04-10T05:52:33.597Z,74.70
2018-04-10T05:55:01.622Z,74.00
2018-04-10T05:57:29.846Z,73.80
2018-04-10T05:59:57.856Z,73.70
2018-04-10T06:02:25.935Z,73.90
2018-04-10T06:04:53.953Z,73.50
2018-04-10T06:07:22.012Z,73.50
2018-04-10T06:09:50.033Z,74.10
2018-04-10T06:12:17.944Z,74.50
2018-04-10T06:14:46.299Z,74.10
2018-04-10T06:17:14.228Z,73.80
2018-04-10T06:19:42.300Z,73.50
2018-04-10T06:22:10.182Z,73.00
2018-04-10T06:24:38.358Z,73.80
2018-04-10T06:27:06.511Z,73.80
2018-04-10T06:29:34.427Z,73.60
2018-04-10T06:32:04.122Z,73.70
2018-04-10T06:34:31.999Z,73.20
2018-04-10T06:37:01.038Z,73.20
2018-04-10T06:39:29.165Z,72.60
2018-04-10T06:41:57.099Z,72.60
2018-04-10T06:44:25.227Z,72.90
2018-04-10T06:46:53.285Z,72.70
2018-04-10T06:49:23.238Z,72.00
2018-04-10T06:51:51.310Z,72.00
2018-04-10T06:54:20.001Z,71.90
2018-04-10T06:56:48.146Z,71.00
2018-04-10T06:59:17.484Z,70.60
2018-04-10T07:01:53.061Z,70.60
2018-04-10T07:04:26.933Z,71.00
2018-04-10T07:07:01.605Z,70.10
2018-04-10T07:09:30.366Z,70.10
2018-04-10T07:11:58.272Z,69.80
2018-04-10T07:14:27.167Z,69.90
2018-04-10T07:16:55.039Z,69.10
2018-04-10T07:19:22.952Z,68.70
2018-04-10T07:21:51.988Z,68.30
2018-04-10T07:24:21.027Z,67.90
2018-04-10T07:26:48.920Z,67.60
2018-04-10T07:29:16.844Z,67.60
2018-04-10T07:31:44.799Z,66.70
2018-04-10T07:34:14.457Z,66.20
2018-04-10T07:36:42.586Z,66.10
2018-04-10T07:39:11.133Z,66.70
2018-04-10T07:41:39.251Z,65.80
2018-04-10T07:44:07.507Z,66.00
2018-04-10T07:46:35.807Z,66.10
2018-04-10T07:49:03.734Z,66.50
2018-04-10T07:51:32.146Z,66.10
2018-04-10T07:54:00.143Z,66.30
2018-04-10T07:56:28.351Z,66.10
2018-04-10T07:58:56.276Z,66.20
2018-04-10T08:01:24.509Z,65.60
2018-04-10T08:03:52.949Z,65.00
2018-04-10T08:06:21.088Z,64.80
2018-04-10T08:08:49.153Z,65.00
2018-04-10T08:11:17.190Z,64.50
2018-04-10T08:13:45.105Z,65.40
2018-04-10T08:16:13.913Z,63.70
2018-04-10T08:18:47.882Z,63.80
2018-04-10T08:21:16.989Z,63.20
2018-04-10T08:23:51.128Z,63.10
2018-04-10T08:26:21.210Z,62.70
2018-04-10T08:28:55.633Z,62.10
2018-04-10T08:31:30.833Z,62.70
2018-04-10T08:34:06.333Z,62.60
2018-04-10T08:36:37.424Z,62.10
2018-04-10T08:39:08.860Z,62.80
2018-04-10T08:41:40.128Z,62.30
2018-04-10T08:44:08.152Z,61.80
2018-04-10T08:46:36.896Z,60.60
2018-04-10T08:49:05.820Z,60.60
2018-04-10T08:51:33.740Z,60.10
2018-04-10T08:54:01.650Z,61.10
2018-04-10T08:56:30.839Z,60.80
2018-04-10T08:58:59.083Z,60.20
2018-04-10T09:01:27.246Z,59.80
2018-04-10T09:03:55.505Z,60.90
2018-04-10T09:06:24.539Z,59.10
2018-04-10T09:08:52.924Z,58.80
2018-04-10T09:11:21.960Z,58.50
2018-04-10T09:13:49.695Z,59.70
2018-04-10T09:16:17.448Z,59.50
2018-04-10T09:18:45.530Z,57.20
2018-04-10T09:21:13.500Z,59.20
2018-04-10T09:23:41.497Z,58.30
2018-04-10T09:26:09.536Z,57.70
2018-04-10T09:28:41.221Z,55.50
2018-04-10T09:31:13.623Z,54.70
2018-04-10T09:33:41.358Z,54.60
2018-04-10T09:36:09.079Z,55.00
2018-04-10T09:38:36.796Z,51.60
2018-04-10T09:41:04.714Z,51.00
2018-04-10T09:43:34.385Z,51.20
2018-04-10T09:46:02.518Z,51.30
2018-04-10T09:48:30.442Z,51.30
2018-04-10T09:50:58.514Z,51.90
2018-04-10T09:53:27.309Z,52.50
2018-04-10T09:55:55.578Z,52.50
2018-04-10T09:58:25.354Z,52.10
2018-04-10T10:00:53.449Z,52.10
2018-04-10T10:03:21.506Z,51.50
2018-04-10T10:05:50.199Z,52.10
2018-04-10T10:08:17.895Z,51.90
2018-04-10T10:10:46.000Z,51.00
2018-04-10T10:13:13.876Z,51.10
2018-04-10T10:15:43.119Z,52.90
2018-04-10T10:18:11.462Z,52.30
2018-04-10T10:20:39.496Z,51.50
2018-04-10T10:23:07.483Z,51.30
2018-04-10T10:25:35.581Z,52.20
2018-04-10T10:28:03.635Z,51.10
2018-04-10T10:30:38.124Z,51.90
2018-04-10T10:33:12.330Z,51.00
2018-04-10T10:35:46.832Z,52.80
2018-04-10T10:38:14.529Z,52.60
2018-04-10T10:40:42.326Z,52.20
2018-04-10T10:43:10.256Z,52.70
2018-04-10T10:45:39.191Z,50.40
2018-04-10T10:48:07.768Z,52.00
2018-04-10T10:50:36.711Z,51.60
2018-04-10T10:53:04.845Z,51.60
2018-04-10T10:55:33.509Z,51.60
2018-04-10T10:58:02.184Z,52.10
2018-04-10T11:00:30.096Z,52.00
2018-04-10T11:02:58.213Z,51.30
2018-04-10T11:05:26.287Z,52.50
2018-04-10T11:07:54.309Z,52.20
2018-04-10T11:10:22.595Z,52.90
2018-04-10T11:12:50.910Z,54.40
2018-04-10T11:15:19.194Z,55.10
2018-04-10T11:17:47.409Z,55.80
2018-04-10T11:20:15.451Z,53.50
2018-04-10T11:22:44.435Z,54.30
2018-04-10T11:25:12.494Z,54.20
2018-04-10T11:27:42.922Z,53.30
2018-04-10T11:30:10.803Z,53.20
2018-04-10T11:32:40.160Z,54.00
2018-04-10T11:35:08.159Z,53.00
2018-04-10T11:37:36.234Z,51.30
2018-04-10T11:40:04.426Z,51.10
2018-04-10T11:42:32.393Z,53.50
2018-04-10T11:45:01.195Z,50.00
2018-04-10T11:47:29.687Z,50.00
2018-04-10T11:50:04.754Z,50.40
2018-04-10T11:52:33.733Z,50.80
2018-04-10T11:55:02.888Z,50.20
2018-04-10T11:57:30.947Z,49.40
2018-04-10T11:59:59.036Z,50.50
2018-04-10T12:02:27.050Z,49.00
2018-04-10T12:04:55.658Z,47.80
2018-04-10T12:07:23.972Z,47.10
2018-04-10T12:09:51.742Z,48.90
2018-04-10T12:12:20.892Z,47.60
2018-04-10T12:14:48.827Z,49.30
2018-04-10T12:17:16.838Z,47.80
2018-04-10T12:19:45.611Z,47.80
2018-04-10T12:22:13.724Z,46.80
2018-04-10T12:24:41.917Z,48.40
2018-04-10T12:27:09.997Z,48.40
2018-04-10T12:29:37.903Z,47.40
2018-04-10T12:32:06.045Z,48.20
2018-04-10T12:34:35.142Z,46.40
2018-04-10T12:37:03.842Z,47.20
2018-04-10T12:39:32.425Z,46.00
2018-04-10T12:42:00.277Z,44.10
2018-04-10T12:44:28.316Z,44.90
2018-04-10T12:46:56.476Z,43.60
2018-04-10T12:49:24.805Z,43.70
2018-04-10T12:51:52.865Z,44.40
2018-04-10T12:54:20.958Z,46.10
2018-04-10T12:56:53.714Z,44.40
2018-04-10T12:59:21.655Z,44.00
2018-04-10T13:01:49.618Z,46.20
2018-04-10T13:04:18.274Z,48.00
2018-04-10T13:06:46.495Z,47.30
2018-04-10T13:09:14.212Z,46.80
2018-04-10T13:11:43.170Z,46.40
2018-04-10T13:14:11.097Z,46.50
2018-04-10T13:16:39.083Z,45.80
2018-04-10T13:19:07.334Z,46.80
2018-04-10T13:21:35.296Z,44.00
2018-04-10T13:24:03.457Z,44.90
2018-04-10T13:26:31.599Z,42.70
2018-04-10T13:28:59.528Z,44.40
2018-04-10T13:31:27.314Z,41.00
2018-04-10T13:33:56.451Z,43.20
2018-04-10T13:36:24.456Z,43.40
2018-04-10T13:38:52.303Z,44.10
2018-04-10T13:41:21.234Z,42.20
2018-04-10T13:43:49.137Z,42.20
2018-04-10T13:46:18.179Z,44.70
2018-04-10T13:48:46.601Z,43.60
2018-04-10T13:51:14.628Z,44.00
2018-04-10T13:53:43.238Z,44.50
2018-04-10T13:56:11.858Z,44.70
2018-04-10T13:58:40.339Z,44.90
2018-04-10T14:01:08.352Z,45.00
2018-04-10T14:03:36.836Z,44.80
2018-04-10T14:06:04.552Z,47.30
2018-04-10T14:08:32.662Z,44.00
2018-04-10T14:11:00.822Z,44.80
2018-04-10T14:13:28.853Z,44.40
2018-04-10T14:15:57.260Z,45.00
2018-04-10T14:18:25.038Z,44.10
2018-04-10T14:20:54.175Z,45.30
2018-04-10T14:23:24.234Z,46.00
2018-04-10T14:25:52.658Z,42.80
2018-04-10T14:28:20.766Z,42.40
2018-04-10T14:30:49.049Z,45.30
2018-04-10T14:33:17.762Z,43.40
2018-04-10T14:35:45.614Z,43.40
2018-04-10T14:38:14.657Z,45.50
2018-04-10T14:40:42.883Z,45.60
2018-04-10T14:43:10.852Z,46.00
2018-04-10T14:45:39.007Z,44.00
2018-04-10T14:48:07.861Z,45.30
2018-04-10T14:50:37.231Z,46.40
2018-04-10T14:53:05.564Z,46.60
2018-04-10T14:55:33.778Z,47.20
2018-04-10T14:58:02.762Z,44.80
2018-04-10T15:00:31.655Z,46.00
2018-04-10T15:03:00.510Z,45.10
2018-04-10T15:05:29.453Z,45.10
2018-04-10T15:07:57.959Z,47.20
2018-04-10T15:10:26.148Z,46.10
2018-04-10T15:12:55.276Z,48.50
2018-04-10T15:15:24.002Z,47.60
2018-04-10T15:17:52.004Z,47.60
2018-04-10T15:20:20.090Z,47.60
2018-04-10T15:22:48.380Z,48.00
2018-04-10T15:25:17.176Z,47.40
2018-04-10T15:27:45.953Z,46.70
2018-04-10T15:30:14.181Z,47.20
2018-04-10T15:32:42.963Z,48.30
2018-04-10T15:35:14.283Z,48.70
2018-04-10T15:37:42.460Z,47.60
2018-04-10T15:40:11.295Z,48.10
2018-04-10T15:42:39.172Z,48.10
2018-04-10T15:45:07.219Z,47.00
2018-04-10T15:47:38.938Z,47.70
2018-04-10T15:50:07.799Z,47.60
2018-04-10T15:52:36.063Z,47.60
2018-04-10T15:55:04.925Z,47.90
2018-04-10T15:57:33.090Z,47.90
2018-04-10T16:00:01.131Z,48.70
2018-04-10T16:02:29.278Z,49.10
2018-04-10T16:04:57.342Z,47.80
2018-04-10T16:07:25.645Z,49.00
2018-04-10T16:09:53.698Z,48.30
2018-04-10T16:12:22.553Z,49.80
2018-04-10T16:14:50.642Z,49.80
2018-04-10T16:17:18.643Z,48.70
2018-04-10T16:19:47.604Z,48.80
2018-04-10T16:22:16.705Z,49.00
2018-04-10T16:24:45.852Z,49.20
2018-04-10T16:27:14.832Z,49.20
2018-04-10T16:29:43.118Z,49.30
2018-04-10T16:32:12.245Z,49.70
2018-04-10T16:34:41.529Z,50.00
2018-04-10T16:37:10.174Z,50.00
2018-04-10T16:39:39.503Z,50.50
2018-04-10T16:42:07.315Z,50.50
2018-04-10T16:44:35.833Z,51.00
2018-04-10T16:47:04.311Z,51.70
2018-04-10T16:49:32.499Z,52.50
2018-04-10T16:52:01.952Z,53.80
2018-04-10T16:54:31.007Z,53.70
2018-04-10T16:56:58.915Z,54.60
2018-04-10T16:59:26.978Z,55.10
2018-04-10T17:01:54.955Z,55.90
2018-04-10T17:04:22.895Z,56.10
2018-04-10T17:06:51.337Z,56.10
2018-04-10T17:09:19.787Z,57.00
2018-04-10T17:11:47.749Z,57.30
2018-04-10T17:14:16.374Z,57.90
2018-04-10T17:16:44.985Z,57.80
2018-04-10T17:19:13.510Z,58.10
2018-04-10T17:21:47.193Z,58.50
2018-04-10T17:24:15.170Z,59.10
2018-04-10T17:26:52.994Z,59.30
2018-04-10T17:29:20.896Z,59.10
2018-04-10T17:31:49.525Z,59.50
2018-04-10T17:34:18.104Z,59.70
2018-04-10T17:36:46.895Z,59.80
2018-04-10T17:39:15.241Z,60.00
2018-04-10T17:41:43.254Z,60.20
2018-04-10T17:44:12.469Z,61.00
2018-04-10T17:46:40.551Z,61.00
2018-04-10T17:49:08.711Z,60.80
2018-04-10T17:51:38.119Z,61.10
2018-04-10T17:54:07.251Z,60.70
2018-04-10T17:56:36.588Z,61.10
2018-04-10T17:59:04.884Z,60.60
2018-04-10T18:01:33.342Z,60.80
2018-04-10T18:04:01.390Z,61.00
2018-04-10T18:06:29.891Z,61.20
2018-04-10T18:08:58.682Z,61.70
2018-04-10T18:11:27.904Z,63.00
2018-04-10T18:13:59.264Z,62.30
2018-04-10T18:16:27.390Z,62.80
2018-04-10T18:18:55.676Z,62.60
2018-04-10T18:21:26.339Z,63.10
2018-04-10T18:23:54.490Z,63.10
2018-04-10T18:26:22.542Z,63.20
2018-04-10T18:28:50.689Z,63.10
2018-04-10T18:31:23.715Z,63.60
2018-04-10T18:33:52.378Z,63.50
2018-04-10T18:36:21.351Z,63.60
2018-04-10T18:38:50.366Z,63.50
2018-04-10T18:41:19.428Z,64.30
2018-04-10T18:43:48.484Z,64.50
2018-04-10T18:46:17.337Z,64.10
2018-04-10T18:48:45.816Z,64.10
2018-04-10T18:51:14.512Z,65.00
2018-04-10T18:53:42.839Z,65.00
2018-04-10T18:56:11.771Z,66.00
2018-04-10T18:58:39.609Z,66.70
2018-04-10T19:01:08.335Z,67.50
2018-04-10T19:03:37.835Z,69.30
2018-04-10T19:06:06.105Z,71.40
2018-04-10T19:08:34.275Z,73.30
2018-04-10T19:11:03.594Z,76.40
2018-04-10T19:13:31.528Z,76.30
2018-04-10T19:16:00.330Z,79.30
2018-04-10T19:18:28.439Z,78.80
2018-04-10T19:20:56.789Z,81.10
2018-04-10T19:23:25.094Z,82.50
2018-04-10T19:25:54.115Z,84.00
2018-04-10T19:28:22.196Z,84.00
2018-04-10T19:30:50.002Z,84.10
2018-04-10T19:33:18.087Z,84.30
2018-04-10T19:35:46.273Z,84.30
2018-04-10T19:38:14.864Z,85.10
2018-04-10T19:40:42.617Z,85.10
2018-04-10T19:43:10.782Z,85.80
2018-04-10T19:45:39.778Z,86.40
2018-04-10T19:48:08.533Z,87.50
2018-04-10T19:50:37.051Z,87.40
2018-04-10T19:53:07.365Z,87.40
2018-04-10T19:55:35.437Z,87.40
2018-04-10T19:58:03.628Z,87.70
2018-04-10T20:00:31.692Z,87.90
2018-04-10T20:03:00.720Z,87.90
2018-04-10T20:05:28.863Z,88.00
2018-04-10T20:07:59.248Z,86.90
2018-04-10T20:10:28.526Z,88.20
2018-04-10T20:12:56.528Z,88.80
2018-04-10T20:15:24.459Z,89.10
2018-04-10T20:17:52.799Z,89.50
2018-04-10T20:20:20.868Z,89.30
2018-04-10T20:22:49.224Z,89.20
2018-04-10T20:25:19.424Z,89.40
2018-04-10T20:27:47.662Z,89.40
2018-04-10T20:30:15.412Z,89.20
2018-04-10T20:32:43.385Z,89.30
2018-04-10T20:35:11.506Z,89.40
2018-04-10T20:37:39.656Z,89.40
2018-04-10T20:40:08.784Z,89.60
2018-04-10T20:42:36.735Z,89.40
2018-04-10T20:45:06.020Z,89.60
2018-04-10T20:47:34.093Z,89.50
2018-04-10T20:50:02.263Z,89.30
2018-04-10T20:52:32.262Z,88.70
2018-04-10T20:55:00.049Z,88.70
2018-04-10T20:57:32.823Z,89.10
2018-04-10T21:00:01.205Z,88.20
2018-04-10T21:02:31.885Z,88.10
2018-04-10T21:05:00.840Z,88.20
2018-04-10T21:07:29.813Z,88.10
2018-04-10T21:09:57.931Z,87.40
2018-04-10T21:12:28.041Z,87.40
2018-04-10T21:14:56.075Z,87.30
2018-04-10T21:17:24.757Z,87.80
2018-04-10T21:19:52.840Z,87.90
2018-04-10T21:22:21.033Z,88.00
2018-04-10T21:24:49.064Z,88.50
2018-04-10T21:27:16.888Z,88.80
2018-04-10T21:29:45.784Z,89.10
2018-04-10T21:32:13.618Z,89.10
2018-04-10T21:34:41.588Z,90.10
2018-04-10T21:37:09.405Z,89.30
2018-04-10T21:39:37.838Z,89.40
2018-04-10T21:42:05.795Z,89.50
2018-04-10T21:44:33.707Z,88.80
2018-04-10T21:47:03.256Z,86.80
2018-04-10T21:49:31.450Z,86.80
2018-04-10T21:52:00.223Z,87.20
2018-04-10T21:54:28.019Z,86.90
2018-04-10T21:56:56.368Z,86.80
2018-04-10T21:59:24.153Z,86.60
2018-04-10T22:01:51.931Z,86.50
2018-04-10T22:04:20.815Z,86.60
2018-04-10T22:06:48.746Z,85.70
2018-04-10T22:09:16.628Z,85.80
2018-04-10T22:11:44.619Z,86.30
2018-04-10T22:14:12.904Z,86.00
2018-04-10T22:16:40.848Z,85.90
2018-04-10T22:19:08.652Z,86.80
2018-04-10T22:21:37.089Z,86.60
2018-04-10T22:24:05.102Z,86.70
2018-04-10T22:26:33.848Z,86.80
2018-04-10T22:29:01.878Z,86.60
2018-04-10T22:31:29.974Z,87.00
2018-04-10T22:33:57.818Z,87.10
2018-04-10T22:36:25.588Z,87.10
2018-04-10T22:38:53.755Z,86.30
2018-04-10T22:41:22.252Z,86.90
